Espace membre
Imprimable
Challenges > Delhalle - Chatelet, 20/05/2018, BEL - La Châtelettaine
Liste des rapports > Delhalle - 14km - Classement
Recherche: Page: [1]
104 Entrées
 
Les réclamations ne sont plus acceptées, les résultats sont considérés comme définitifs.
Catégorie
PosNrNomAgeIOCLigueEquipeRéelTempsTkmMoy.RangNomScrPtsLocalité
1.2580VAN DEN ABEELE ELODIE22BELACLO58:3158:354:11 14.401dam30943CARNIÈRES
2.28CUPERS DOROTHEE31BELENJAMBEE58:5658:584:12 14.302dam34933BRUXELLES
3.17DESILLE NICOLE51BELRIWARIWA1:02:111:02:164:26 13.541ai254866LA HULPE
4.2155DERUDDERE LIES32BELBEHO1:02:381:02:384:28 13.463dam56857WEVELGEM
5.390GERARDIN BEATRICE48FRAJACO1:04:471:04:534:37 13.001ai182804CHARLEVILLE-MÉZIÈRES
6.469JOLY VAUDOISEY ANNE51FRARCBTRAINING 71:07:521:07:574:51 12.412ai2114735UCCLE
7.2521HAMOIR KAREN37BELESMESM1:08:131:08:184:52 12.354dam119726
8.2161CONIGLIO MARIA-CONCETTA48BELUAC1:09:021:09:054:55 12.212ai1129707MARCHIENNE-AU-PONT
9.42ROBERTI DAPHNÉ42BELRCNAMUR / METTET1:09:291:09:354:58 12.123ai1132699STAVE (METTET)
10.107DEWINTER EMMANUELLE27BELBOUFFIOLS1:09:591:10:065:00 12.035dam138687BOUFFIOULX
11.2450PORROVECCHIO LINA30BELHF1:10:131:10:175:01 12.006dam140682
12.483DE WOOT ANTOINETTE54BELESM1:10:211:10:365:02 11.943ai2142679MARCHIENNE-AU-PONT
13.2205CLEPPE ROXANE17BELUAC1:10:441:10:505:03 11.911esf147670FRASNES-LEZ-GOSSELIES
14.2491VENEUKEM LISE25BEL1:11:521:12:135:09 11.687dam162643
15.187LEGRAND SYLVIANE57BELJACOJACO1:12:501:12:585:12 11.564ai2166627MONCEAU-IMBRECHIES
16.2187BERCY MARIE- PAULE71BELESMESM1:13:381:13:415:15 11.451ai4176609
17.606MIDDEL INE60BELROBA1:14:101:14:195:18 11.351ai3187594RAMSEL
18.2437HENIN VIRGINIE34BELCRACCRAC1:14:351:14:435:19 11.298dam194583
19.907THIRY MARIE36BELRCNAMUR - JOGGPLUS1:15:401:15:495:24 11.129dam212556ASSESSE
20.2195DELFOSSE CAMILLE34BELESM1:15:351:15:575:25 11.1010dam215555COURCELLES
21.218ALEXANDRE FRANCOISE63BELMYSTERE1:16:131:16:225:26 11.042ai3221542VEDRIN
22.2602GOELEN NATHALIE38BELESM1:17:251:17:475:33 10.8411dam239513
23.819PIRSON FLORENCE46BELRIWA1:18:111:18:225:35 10.764ai1244500GENVAL
24.2501MESTACH CRISTINE57BELFLEU1:18:181:18:275:35 10.755ai2245498MARBAIS (BR.W.)
25.2146BOURMORCK CARINE51BELFLEU1:18:311:18:365:36 10.736ai2250492AISEAU
26.324FAVETTE ASTRID35BELSPTWAVRE1:18:301:18:575:38 10.6812dam253490VILLEROUX
27.2507LE GOUPIL MARINE17BEL1:19:011:19:275:40 10.612esf260478BOUFFIOULX
28.872LEGROS VANESSA48BELZATAC CHARLEROI1:19:101:19:335:40 10.605ai1266472MONTIGNY-LE-TILLEUL
29.377BIRIS SYLVIANNE60BEL1:19:361:19:455:41 10.573ai3268465JEMEPPE-SUR-SAMBRE
30.2163AMICI ISABELLA49ITAUAC1:19:461:19:575:42 10.556ai1272460FARCIENNES
31.2151EVERARTS DELPHINE28BELGAG1:20:021:20:195:43 10.5013dam276454PERWEZ
32.2503COSTA LUCIANA57BELFLEU1:20:191:20:285:44 10.487ai2277449LIGNY
33.2534FOSTER CHRISTIANE53BELFLEUFLEU1:21:291:21:385:49 10.338ai2287428
34.451MOUYARD ELODIE48BELZATAC1:21:201:21:435:49 10.327ai1289428FALISOLLE
35.331GODFROID YAEL18BELMYSTERE1:21:411:21:545:50 10.303esf290423WATERLOO
36.575VAN WEDDINGEN ANNE55BELCSFMYSTERE1:22:481:23:025:55 10.169ai2297405ANDERLECHT
37.176VERPLAETSE JOHANNA47BELCSFMYSTERE1:22:511:23:075:55 10.158ai1299402FOREST
38.2150PLUQUET MELISSA33BEL1:23:231:23:395:58 10.0814dam305392MORIALMÉ
39.2148MAES VIRGINIE25BELGAG1:23:271:23:435:58 10.0715dam306390GEMBLOUX
40.399ROMBAUX ESTHER27BEL1:23:491:23:595:59 10.0416dam308384LOUVAIN-LA-NEUVE
41.2535STEENO AURELIE37BELGAG1:23:531:24:126:00 10.0217dam314380
42.879GEERAERTS MAGALI30BELMYSTERE1:24:431:24:586:03 9.9218dam321364LEUZE
43.350GEVENOIS MARIE-ROSE68BELUAC1:25:001:25:086:04 9.914ai3322360LES BONS VILLERS
44.883CASTIAU CÉLINE40BELRCAS1:24:501:25:206:05 9.889ai1324361SCHAERBEEK
45.2141VALEPIN KATHLEEN46BELGAG1:25:111:25:306:05 9.8610ai1325356GEMBLOUX
46.826LAMERANT CHANTAL54BELOXYGENE1:25:211:25:426:06 9.8410ai2328352BIERCEE
47.2170PIETTON LAURENCE48BELESM1:25:381:26:026:08 9.8011ai1329348MARCINELLE
48.722WILLEMS ESTELLE27BEL1:25:511:26:076:08 9.7919dam332343NAMUR
49.185VICO MARIELLE50BELRCNAMUR1:25:581:26:126:08 9.7811ai2334340NAMUR
50.2557POTY DELPHINE37BELESMESM1:25:511:26:166:09 9.7820dam336340GOUTROUX
51.2128HANOTEAU ISABELLE46BEL1:26:111:26:386:10 9.7312ai1338335LIGNY
52.2445CHALTIN ALICIA32BELBOUFFIO1:26:191:26:536:11 9.7121dam342331
53.2527DEMARET NATHALIE38BELJCPMF1:26:361:26:546:11 9.7022dam343326
54.391VAUSE FABIENNE53BELRCNAMUR1:27:271:27:416:15 9.6212ai2347314MALONNE
55.2592VAN DEN BUNDERE DIANE54BEL1:27:251:27:476:15 9.6113ai2348314EDEGEM
56.2134POUCEZ NATHALIE31BEL1:27:561:28:026:16 9.5823dam351306BOUFFIOULX
57.2569COELST NATHALIE49BEL1:28:091:28:336:18 9.5213ai1355300PRESLES
58.2461PESETTI MIRANDA53BELJC THIM1:28:241:28:446:19 9.5014ai2356297
59.2480MAYENCE AUDREY33BEL1:28:491:29:136:21 9.4524dam363287
60.2429VEIRMAN JULIE24BEL1:29:011:29:336:23 9.4225dam366283
61.861MALIKIAN MARIE50BELMYSTERE1:29:231:29:396:23 9.4115ai2367278BRUXELLES
62.2442DUPUIS FLORENCE42BELRIWA1:29:091:29:406:23 9.4014ai1368280
63.2444WILLIAME MAUD33BELJC HSH1:29:211:29:416:23 9.4026dam369277
64.2167BOMBOIR NATHALIE40BEL1:29:141:29:456:24 9.4015ai1371277SAINT-SYMPHORIEN
65.2158BOMBOIR ISABELLE43BELBOMBOIRZIO RUNNING TEAM1:29:141:29:456:24 9.4016ai1372276FELUY
66.36MESSAOUDI NADIA31BELMYSTERE1:30:131:30:296:27 9.3227dam375263BRUXELLES
67.2171DOUMONT VALERIE50BELBOUFFIOLS1:30:141:30:496:28 9.2916ai2379259MARCINELLE
68.182BAETEN EDITH58BELRCNAMUR1:30:471:31:006:29 9.2717ai2380253NAMUR
69.76MORRIS NICOLA-ELIZABETH58BELENJAMBEE1:31:031:31:156:30 9.2418ai2383248BRUXELLES
70.358MATTHIEU FABIENNE53BELENJAMBEE1:30:531:31:166:30 9.2419ai2384249BRUXELLES
71.520BACCARI SAMIA43BEL1:31:021:31:336:31 9.2117ai1386246BOTHEY
72.2506PIERARD ESTELLE18BEL1:31:151:31:406:32 9.204esf387243MARCINELLE
73.2125CULOT VIOLAINE20BELRUNNING CLUB METTET1:31:131:31:436:32 9.2028dam388243BOIS-DE-VILLERS
74.2516PORTEZ MARIE CLAUDE44BELUACUAC1:31:481:32:016:33 9.1618ai1390234
75.2566TENRET NADÈGE42BELUAC1:31:491:32:026:33 9.1619ai1391234GOZÉE
76.2204LONGVAL FLORENCE52BELUAC1:32:171:32:226:35 9.1320ai2394227FRASNES-LEZ-GOSSELIES
77.2118CUTTING CHRISTINE27FRA1:32:301:32:476:37 9.0929dam395223BRUXELLES
78.7HENNERESSE ISABELLE48BELJOGGANS1:32:251:32:556:37 9.0820ai1397223GEDINNE
79.222PEREIRA OLINDA46BELUSBWUSBW ROAD TEAM1:32:481:33:186:39 9.0421ai1401216BRAINE L'ALLEUD
80.2207YU XUEYUN40BELJCHSH1:33:201:33:396:40 9.0022ai1402209BERZEE
81.2511AKAL EMEL52BELTEAM AI1:33:291:33:536:41 8.9821ai2404207AISEAU PRESLES
82.2577JONCKHEERE NICOLE63BELESM1:34:041:34:136:43 8.955ai3405199
83.2153MALEVEZ NATHALIE43BELGAG1:34:181:34:366:44 8.9123ai1407195SAINT-DENIS
84.2199THIRION FANFAN61BELESMESM1:35:561:36:016:50 8.786ai3412175ESM
85.2528LACROIX FLORENCE44BELJCPMFJCPMF ETTERBEEK1:35:491:36:076:51 8.7724ai1413175
86.2438STICKER MARGOT27BELOXYGENE1:36:151:36:376:53 8.7330dam414170
87.2162HAUWEL CELINE38BELJACO1:36:321:37:016:55 8.6931dam417165CHIMAY
88.121LEFOUR FLORENCE49BELJACO1:36:331:37:046:55 8.6925ai1418164VAULX
89.817DUBOIS BERTHE65BELBOUFFIOLS1:36:561:37:306:57 8.657ai3420159FALISOLLE
90.881HOURMAN GWENDOLINE51BELENJAMBEE1:37:121:37:356:57 8.6422ai2421155TERVUREN
91.2142CAMBRESIER HÉLÈNE26BEL1:37:181:37:526:58 8.6232dam423153AUDERGHEM
92.2139CHARLIER ISALEEN26BEL1:38:111:38:487:02 8.5333dam427141HAM-SUR-SAMBRE
93.629ROLAND CATHY54BELACLO1:38:561:39:307:05 8.4823ai2430131GODARVILLE
94.2206CERINI CARLA51BELESM1:39:271:39:527:07 8.4424ai2431126
95.2510GOBLET CARINE52BEL1:40:031:40:277:09 8.4025ai2433118
96.311EVRARD JOSIANNE60BELRIWA1:42:321:43:017:20 8.198ai343890BIERGES
97.834BOULANGER BERNADETTE64BELSPTWAVRE1:42:461:43:137:21 8.179ai344086RIXENSART
98.389TAVERNE VERONIQUE52BELENJAMBEE1:44:481:45:117:30 8.0226ai244365BRUXELLES
99.2186LEGRAND KARINE54BELGAG1:46:151:46:357:35 7.9127ai244748GRAND-MANIL
100.660PAULUS ROLANDE60BELJC HSH1:46:281:46:517:37 7.8910ai344845HAM SUR HEURE
101.65SEGHERS RITA71BEL1:46:291:46:567:37 7.892ai444944ZOTTEGEM
102.2208ROMAIN EMILIE34BELHABAY RUNNERS CLUB1:53:041:53:428:06 7.4234dam4533BERTRIX
103.910WAGENER NATHALIE51BELJCHSH2:02:012:02:258:43 6.8928ai24561GERPINNES
DNF2562ROGMANS INGRID45BELBOUFFIOai1THIMÉON
DNF: abandon; DSQ: disqualifié; Vitesse en km/h
Page: [1]